Time;durP1;ratioP1;P1;durP2;ratioP2;P2;SDS_P1;SDS_P2;PMS_P1;PMS_P2;Temp;Humidity;BMP_temperature;BMP_pressure;BME280_temperature;BME280_humidity;BME280_pressure;Samples;Min_cycle;Max_cycle;Signal;HPM_P1;HPM_P2
2022/05/25 00:01:00;;;;;;;7.97;3.05;;;;;;;12.78;100.00;96367.44;5050822;28;20110;-67
2022/05/25 00:03:27;;;;;;;5.72;3.03;;;;;;;12.69;100.00;96370.56;5050882;28;20075;-66
2022/05/25 00:05:54;;;;;;;8.98;3.15;;;;;;;12.80;100.00;96381.59;5015588;28;20032;-66
2022/05/25 00:08:19;;;;;;;4.28;3.10;;;;;;;12.83;100.00;96375.31;5051121;28;20036;-67
2022/05/25 00:10:44;;;;;;;5.47;2.80;;;;;;;12.96;100.00;96375.75;5033685;28;20033;-67
2022/05/25 00:13:10;;;;;;;7.80;3.40;;;;;;;13.08;100.00;96382.84;5049507;28;20044;-65
2022/05/25 00:15:35;;;;;;;4.10;3.00;;;;;;;13.06;100.00;96379.69;5049761;28;20029;-67
2022/05/25 00:18:02;;;;;;;7.03;2.72;;;;;;;13.05;100.00;96376.13;5050542;28;20068;-65
2022/05/25 00:20:27;;;;;;;4.13;2.85;;;;;;;13.06;100.00;96377.72;5049894;28;20412;-66
2022/05/25 00:22:55;;;;;;;4.53;2.70;;;;;;;13.19;100.00;96373.41;5052044;28;20029;-67
2022/05/25 00:25:30;;;;;;;5.05;2.65;;;;;;;13.30;100.00;96375.38;5051490;28;20211;-67
2022/05/25 00:27:56;;;;;;;6.78;2.55;;;;;;;13.39;100.00;96376.59;5051734;28;20040;-67
2022/05/25 00:30:23;;;;;;;8.80;3.10;;;;;;;13.36;100.00;96374.63;5050486;28;20037;-66
2022/05/25 00:32:48;;;;;;;6.35;2.60;;;;;;;13.19;100.00;96375.38;5050870;28;20044;-66
2022/05/25 00:35:17;;;;;;;7.47;2.90;;;;;;;13.05;100.00;96378.88;5032201;28;20033;-67
2022/05/25 00:37:43;;;;;;;15.27;9.70;;;;;;;13.00;100.00;96377.34;5049801;28;20402;-67
2022/05/25 00:40:13;;;;;;;7.85;4.38;;;;;;;13.06;100.00;96374.97;5032417;28;20037;-66
2022/05/25 00:42:39;;;;;;;6.72;2.72;;;;;;;13.19;100.00;96381.66;5050498;28;20090;-64
2022/05/25 00:45:06;;;;;;;5.53;2.97;;;;;;;13.11;100.00;96376.56;5050223;28;20041;-65
2022/05/25 00:47:33;;;;;;;6.55;3.20;;;;;;;13.19;100.00;96381.66;5031478;28;20476;-66
2022/05/25 00:49:58;;;;;;;3.10;2.50;;;;;;;13.29;100.00;96390.31;5050172;28;20029;-67
2022/05/25 00:52:26;;;;;;;6.47;2.67;;;;;;;13.43;100.00;96390.34;5050045;28;20083;-67
2022/05/25 00:55:00;;;;;;;3.00;2.60;;;;;;;13.47;100.00;96384.84;5049831;28;20035;-66
2022/05/25 00:57:33;;;;;;;10.73;3.10;;;;;;;13.45;100.00;96381.69;5049832;28;20024;-66
2022/05/25 01:00:06;;;;;;;4.28;2.97;;;;;;;13.46;100.00;96384.06;5032205;28;20090;-66
2022/05/25 01:02:38;;;;;;;9.38;3.90;;;;;;;13.39;100.00;96397.81;5049402;28;20027;-66
2022/05/25 01:05:04;;;;;;;5.00;2.65;;;;;;;13.29;100.00;96401.31;5043182;28;20025;-67
2022/05/25 01:08:01;;;;;;;4.45;2.78;;;;;;;13.00;100.00;96393.81;5032686;28;20021;-67
2022/05/25 01:10:49;;;;;;;9.80;3.50;;;;;;;12.97;100.00;96388.31;5029690;28;20128;-67
2022/05/25 01:13:27;;;;;;;6.13;2.92;;;;;;;12.92;100.00;96392.22;5030701;28;20397;-68
2022/05/25 01:16:31;;;;;;;5.85;3.20;;;;;;;12.90;100.00;96400.06;5028768;28;20032;-67
2022/05/25 01:19:43;;;;;;;6.20;2.88;;;;;;;13.06;100.00;96399.72;5001318;28;20069;-67
2022/05/25 01:22:30;;;;;;;3.85;3.17;;;;;;;13.11;100.00;96390.31;5006809;28;20046;-67
2022/05/25 01:24:56;;;;;;;4.45;2.88;;;;;;;13.24;100.00;96394.25;5030991;28;20038;-66
2022/05/25 01:27:47;;;;;;;9.82;3.20;;;;;;;13.25;100.00;96395.03;5047233;28;20040;-64
2022/05/25 01:30:21;;;;;;;9.88;3.28;;;;;;;13.34;100.00;96385.25;5028401;28;20046;-67
2022/05/25 01:32:52;;;;;;;7.20;2.97;;;;;;;13.33;100.00;96388.41;5017888;28;20087;-67
2022/05/25 01:35:40;;;;;;;7.93;3.30;;;;;;;13.34;100.00;96393.50;5016835;28;20080;-64
2022/05/25 01:38:26;;;;;;;8.27;3.55;;;;;;;13.37;100.00;96389.16;5034579;28;20059;-66
2022/05/25 01:40:54;;;;;;;5.65;3.65;;;;;;;13.37;100.00;96391.94;5034535;28;20025;-65
2022/05/25 01:43:24;;;;;;;8.40;3.65;;;;;;;13.28;100.00;96389.53;5033958;28;20068;-66
2022/05/25 01:45:52;;;;;;;;;;;;;;;13.24;100.00;96383.25;5052665;28;20033;-65
2022/05/25 01:48:23;;;;;;;11.65;3.20;;;;;;;13.15;100.00;96391.09;5035821;28;19963;-64
2022/05/25 01:50:55;;;;;;;10.57;3.67;;;;;;;12.97;100.00;96393.81;5055274;28;20033;-64
2022/05/25 01:53:28;;;;;;;4.95;3.20;;;;;;;12.98;100.00;96400.88;5039093;28;20063;-65
2022/05/25 01:55:58;;;;;;;10.43;3.78;;;;;;;12.96;100.00;96403.22;5039751;28;20029;-64
2022/05/25 01:58:26;;;;;;;7.93;4.10;;;;;;;12.98;100.00;96400.88;5056069;28;20036;-64
2022/05/25 02:00:58;;;;;;;7.38;3.70;;;;;;;12.97;100.00;96410.31;5035553;28;20055;-64
2022/05/25 02:06:25;;;;;;;6.03;3.58;;;;;;;13.12;100.00;96413.88;5050165;28;20163;-65
2022/05/25 02:08:56;;;;;;;6.07;3.30;;;;;;;13.17;100.00;96416.25;5052840;28;20036;-65
2022/05/25 02:11:37;;;;;;;8.20;3.60;;;;;;;13.16;100.00;96414.66;5052741;28;20029;-65
2022/05/25 02:14:18;;;;;;;9.25;4.03;;;;;;;13.00;100.00;96417.78;5052932;28;20068;-67
2022/05/25 02:17:02;;;;;;;6.93;3.75;;;;;;;13.00;100.00;96421.31;5051975;28;20033;-66
2022/05/25 02:20:13;;;;;;;7.63;4.35;;;;;;;13.01;100.00;96422.88;5052932;28;20037;-65
2022/05/25 02:22:44;;;;;;;8.23;4.22;;;;;;;13.00;100.00;96429.56;5030599;28;20044;-66
2022/05/25 02:25:36;;;;;;;10.45;5.00;;;;;;;12.98;100.00;96426.41;5052667;28;20100;-66
2022/05/25 02:28:10;;;;;;;10.32;4.97;;;;;;;12.91;100.00;96433.84;5052538;28;20524;-66
2022/05/25 02:30:41;;;;;;;10.30;5.30;;;;;;;12.87;100.00;96428.34;5052704;28;20086;-65
2022/05/25 02:33:10;;;;;;;9.73;5.25;;;;;;;12.93;100.00;96440.53;5052564;28;20126;-66
2022/05/25 02:35:40;;;;;;;9.85;5.55;;;;;;;12.91;100.00;96444.84;5051842;28;20041;-66
2022/05/25 02:38:08;;;;;;;8.20;5.15;;;;;;;12.91;100.00;96439.34;5052153;28;20031;-65
2022/05/25 02:40:35;;;;;;;8.82;5.13;;;;;;;12.85;100.00;96447.19;5052303;28;20474;-64
2022/05/25 02:43:02;;;;;;;8.20;5.03;;;;;;;12.89;100.00;96442.50;5050974;28;20379;-65
2022/05/25 02:45:28;;;;;;;10.60;4.40;;;;;;;12.85;100.00;96449.16;5051482;28;20454;-65
2022/05/25 02:47:54;;;;;;;8.00;5.07;;;;;;;12.89;100.00;96450.75;5051322;28;20033;-65
2022/05/25 02:50:19;;;;;;;6.63;4.35;;;;;;;12.95;100.00;96456.66;5051519;28;20048;-64
2022/05/25 02:52:44;;;;;;;8.35;4.13;;;;;;;12.93;100.00;96453.50;5033843;28;20467;-65
2022/05/25 02:55:10;;;;;;;11.60;4.40;;;;;;;12.84;100.00;96456.59;5052183;28;20032;-65
2022/05/25 02:57:36;;;;;;;10.65;3.85;;;;;;;12.86;100.00;96459.75;5051577;28;20033;-66
2022/05/25 03:00:04;;;;;;;6.57;4.05;;;;;;;12.73;100.00;96461.25;5052315;28;20118;-66
2022/05/25 03:02:29;;;;;;;12.20;4.80;;;;;;;12.69;100.00;96465.97;5052088;28;20070;-66
2022/05/25 03:04:55;;;;;;;8.60;3.90;;;;;;;12.74;100.00;96462.84;5033746;28;20163;-64
2022/05/25 03:07:20;;;;;;;6.30;4.22;;;;;;;12.80;100.00;96475.84;5034653;28;20123;-65
2022/05/25 03:09:46;;;;;;;4.18;3.47;;;;;;;12.72;100.00;96471.47;5034234;28;20040;-65
2022/05/25 03:12:13;;;;;;;5.97;3.70;;;;;;;12.69;100.00;96474.97;5018288;28;20036;-65
2022/05/25 03:14:39;;;;;;;6.88;3.90;;;;;;;12.67;100.00;96473.81;5018746;28;20067;-66
2022/05/25 03:17:12;;;;;;;7.10;4.53;;;;;;;12.54;100.00;96479.63;5033891;28;20535;-65
2022/05/25 03:19:39;;;;;;;12.57;4.95;;;;;;;12.48;100.00;96480.38;5052712;28;20100;-66
2022/05/25 03:22:04;;;;;;;7.63;4.25;;;;;;;12.45;100.00;96478.41;5052747;28;20036;-65
2022/05/25 03:24:30;;;;;;;5.55;3.58;;;;;;;12.51;100.00;96487.84;5034130;28;20033;-65
2022/05/25 03:26:55;;;;;;;12.45;3.80;;;;;;;12.51;100.00;96494.13;5033869;28;20592;-65
2022/05/25 03:29:21;;;;;;;5.65;3.58;;;;;;;12.51;100.00;96499.63;5035973;28;20159;-65
2022/05/25 03:31:46;;;;;;;6.82;3.15;;;;;;;12.51;100.00;96504.34;5034769;28;20037;-65
2022/05/25 03:34:12;;;;;;;7.93;3.72;;;;;;;12.30;100.00;96504.97;5051687;28;20029;-64
2022/05/25 03:36:38;;;;;;;7.57;3.47;;;;;;;11.98;100.00;96511.84;5051535;28;20557;-65
2022/05/25 03:39:03;;;;;;;7.18;3.33;;;;;;;11.69;100.00;96520.97;5046384;28;20606;-65
2022/05/25 03:41:29;;;;;;;5.68;3.63;;;;;;;11.66;100.00;96519.75;5048143;28;20021;-66
2022/05/25 03:43:54;;;;;;;5.35;3.30;;;;;;;11.74;100.00;96515.94;5051968;28;20041;-65
2022/05/25 03:46:19;;;;;;;4.97;3.22;;;;;;;11.94;100.00;96512.97;5051507;28;20494;-65
2022/05/25 03:48:45;;;;;;;8.10;3.33;;;;;;;12.06;100.00;96518.16;5051938;28;20040;-66
2022/05/25 03:51:10;;;;;;;6.93;3.70;;;;;;;12.11;100.00;96523.28;5051917;28;20035;-65
2022/05/25 03:53:36;;;;;;;5.90;2.92;;;;;;;12.12;100.00;96529.56;5049417;28;20029;-65
2022/05/25 03:56:04;;;;;;;6.32;3.65;;;;;;;12.13;100.00;96537.44;5051316;28;20029;-65
2022/05/25 03:58:29;;;;;;;9.13;3.42;;;;;;;12.01;100.00;96538.53;5052017;28;20029;-66
2022/05/25 04:00:55;;;;;;;4.88;3.20;;;;;;;11.73;100.00;96536.28;5052001;28;20029;-66
2022/05/25 04:03:20;;;;;;;18.88;3.88;;;;;;;11.53;100.00;96534.94;5051639;28;20033;-66
2022/05/25 04:05:46;;;;;;;7.03;3.78;;;;;;;11.39;100.00;96541.84;5033224;28;20158;-65
2022/05/25 04:08:11;;;;;;;7.55;4.07;;;;;;;11.39;100.00;96541.84;5049993;28;20521;-66
2022/05/25 04:10:37;;;;;;;6.72;3.80;;;;;;;11.42;100.00;96549.31;5043148;28;20032;-66
2022/05/25 04:13:03;;;;;;;7.38;4.80;;;;;;;11.66;100.00;96552.69;5051569;28;20029;-66
2022/05/25 04:15:31;;;;;;;7.47;4.28;;;;;;;11.60;100.00;96562.44;5050787;28;20051;-65
2022/05/25 04:17:57;;;;;;;6.32;4.10;;;;;;;11.30;100.00;96563.28;5051820;28;20032;-65
2022/05/25 04:20:24;;;;;;;7.13;2.97;;;;;;;11.12;100.00;96567.78;5051539;28;20649;-63
2022/05/25 04:22:50;;;;;;;3.30;1.58;;;;;;;11.16;100.00;96563.88;5050757;28;20048;-64
2022/05/25 04:25:19;;;;;;;3.28;1.10;;;;;;;11.17;100.00;96561.97;5050941;28;20032;-64
2022/05/25 04:27:46;;;;;;;4.13;1.70;;;;;;;11.44;100.00;96568.13;5042025;28;20036;-64
2022/05/25 04:30:17;;;;;;;4.50;1.20;;;;;;;11.62;100.00;96563.63;5051100;28;20029;-65
2022/05/25 04:32:43;;;;;;;3.35;1.30;;;;;;;11.57;100.00;96568.66;5051226;28;20713;-63
2022/05/25 04:35:10;;;;;;;2.90;1.48;;;;;;;11.22;100.00;96572.59;5044659;28;20091;-65
2022/05/25 04:37:48;;;;;;;3.38;1.75;;;;;;;10.96;100.00;96573.44;5047241;28;20381;-64
2022/05/25 04:40:16;;;;;;;3.70;1.60;;;;;;;10.96;100.00;96581.66;5051450;28;20139;-64
2022/05/25 04:42:43;;;;;;;2.28;1.23;;;;;;;11.08;100.00;96582.22;5054500;28;20028;-64
2022/05/25 04:45:09;;;;;;;2.13;1.58;;;;;;;11.09;100.00;96588.47;5053909;28;20032;-65
2022/05/25 04:47:37;;;;;;;3.00;1.50;;;;;;;11.20;100.00;96583.13;5053671;28;20029;-64
2022/05/25 04:50:06;;;;;;;3.35;1.35;;;;;;;11.07;100.00;96588.06;5049362;28;20036;-65
2022/05/25 04:52:36;;;;;;;;;;;;;;;11.20;100.00;96585.88;5034068;28;20079;-65
2022/05/25 04:55:02;;;;;;;2.27;1.30;;;;;;;11.12;100.00;96593.22;5041980;28;20361;-65
2022/05/25 04:57:27;;;;;;;3.17;1.00;;;;;;;11.20;100.00;96596.84;5050731;28;20024;-64
2022/05/25 04:59:55;;;;;;;5.18;1.38;;;;;;;11.41;100.00;96610.78;5050238;28;20106;-65
2022/05/25 05:02:21;;;;;;;8.73;1.38;;;;;;;11.41;100.00;96610.78;5049869;28;20035;-62
2022/05/25 05:04:47;;;;;;;2.90;1.00;;;;;;;11.35;100.00;96614.25;5050373;28;20033;-64
2022/05/25 05:07:14;;;;;;;2.17;1.20;;;;;;;11.37;100.00;96618.19;5047610;28;20032;-64
2022/05/25 05:09:41;;;;;;;3.90;1.35;;;;;;;11.11;100.00;96605.38;5050563;28;20470;-64
2022/05/25 05:12:08;;;;;;;4.45;1.50;;;;;;;10.90;100.00;96603.91;5034894;28;20037;-64
2022/05/25 05:14:34;;;;;;;2.72;1.38;;;;;;;10.87;100.00;96617.56;5067632;28;20390;-64
2022/05/25 05:17:01;;;;;;;4.15;1.60;;;;;;;10.87;100.00;96621.06;5058443;28;20033;-64
2022/05/25 05:19:27;;;;;;;2.17;1.35;;;;;;;11.04;100.00;96638.16;5049436;28;20051;-63
2022/05/25 05:21:54;;;;;;;2.88;1.70;;;;;;;11.13;100.00;96633.19;5042473;28;20040;-64
2022/05/25 05:24:21;;;;;;;4.03;1.60;;;;;;;11.11;100.00;96630.03;5050730;28;20036;-65
2022/05/25 05:26:46;;;;;;;4.00;1.95;;;;;;;10.89;100.00;96626.19;5049986;28;20079;-65
2022/05/25 05:29:12;;;;;;;4.90;1.90;;;;;;;11.10;100.00;96631.19;5044689;28;20106;-64
2022/05/25 05:31:37;;;;;;;3.90;1.55;;;;;;;11.16;100.00;96628.91;5047940;28;20443;-63
2022/05/25 05:34:03;;;;;;;4.35;1.88;;;;;;;11.12;100.00;96639.03;5040843;28;20033;-64
2022/05/25 05:36:36;;;;;;;5.57;1.85;;;;;;;11.15;100.00;96643.78;5050886;28;20123;-64
2022/05/25 05:39:07;;;;;;;5.63;1.85;;;;;;;11.18;100.00;96648.50;5045821;28;20029;-63
2022/05/25 05:41:40;;;;;;;2.72;1.83;;;;;;;11.15;100.00;96649.25;5065124;28;20084;-64
2022/05/25 05:44:08;;;;;;;3.33;2.45;;;;;;;11.16;100.00;96642.59;5068875;28;20029;-62
2022/05/25 05:46:36;;;;;;;4.63;2.38;;;;;;;11.56;100.00;96647.44;5071630;28;20013;-63
2022/05/25 05:49:04;;;;;;;3.45;1.88;;;;;;;11.71;100.00;96647.59;5055941;28;20473;-63
2022/05/25 05:51:30;;;;;;;4.35;2.47;;;;;;;11.73;100.00;96654.25;5050594;28;20040;-65
2022/05/25 05:53:56;;;;;;;6.38;3.70;;;;;;;12.24;100.00;96653.66;5051135;28;20404;-65
2022/05/25 05:56:22;;;;;;;4.88;2.35;;;;;;;12.51;100.00;96655.41;5049923;28;20045;-63
2022/05/25 05:58:47;;;;;;;5.50;2.92;;;;;;;12.71;100.00;96661.47;5042283;28;20463;-63
2022/05/25 06:01:13;;;;;;;4.30;1.92;;;;;;;12.78;100.00;96667.81;5050660;28;20060;-64
2022/05/25 06:03:38;;;;;;;3.47;1.58;;;;;;;12.46;100.00;96672.25;5050419;28;20490;-62
2022/05/25 06:06:03;;;;;;;5.15;1.60;;;;;;;12.63;100.00;96675.13;5049141;28;20087;-64
2022/05/25 06:08:30;;;;;;;7.43;1.58;;;;;;;12.54;100.00;96677.44;5050880;28;20036;-64
2022/05/25 06:10:56;;;;;;;4.40;1.30;;;;;;;12.31;100.00;96685.06;5050973;28;20059;-64
2022/05/25 06:13:22;;;;;;;1.88;1.10;;;;;;;12.32;100.00;96689.41;5051087;28;20025;-64
2022/05/25 06:21:18;;;;;;;4.10;1.63;;;;;;;11.87;100.00;96689.31;5066220;28;20115;-65
2022/05/25 06:23:43;;;;;;;3.05;1.67;;;;;;;12.03;100.00;96694.63;5065773;28;20033;-65
2022/05/25 06:26:09;;;;;;;3.53;1.20;;;;;;;11.74;100.00;96698.94;5067343;28;20059;-64
2022/05/25 06:28:35;;;;;;;4.07;1.58;;;;;;;11.66;100.00;96704.34;5050516;28;20037;-64
2022/05/25 06:31:00;;;;;;;3.22;1.05;;;;;;;11.78;100.00;96697.84;5062772;28;20038;-64
2022/05/25 06:33:26;;;;;;;2.38;1.33;;;;;;;11.71;100.00;96710.69;5062024;28;20028;-65
2022/05/25 06:35:51;;;;;;;1.77;1.40;;;;;;;11.66;100.00;96707.09;5062179;28;20037;-63
2022/05/25 06:38:17;;;;;;;2.33;1.27;;;;;;;11.63;100.00;96720.75;5059702;28;20509;-65
2022/05/25 06:40:42;;;;;;;3.20;1.42;;;;;;;11.79;100.00;96724.13;5063850;28;20050;-65
2022/05/25 06:43:08;;;;;;;4.68;1.30;;;;;;;12.14;100.00;96727.69;5062211;28;20033;-66
2022/05/25 06:45:33;;;;;;;3.42;1.40;;;;;;;12.32;100.00;96728.63;5051860;28;20020;-65
2022/05/25 06:48:02;;;;;;;3.20;1.40;;;;;;;12.40;100.00;96732.25;5042410;28;20033;-64
2022/05/25 06:50:27;;;;;;;3.92;1.27;;;;;;;12.49;100.00;96732.72;5053443;28;20122;-65
2022/05/25 06:52:53;;;;;;;2.63;1.40;;;;;;;12.45;100.00;96742.09;5045196;28;20061;-65
2022/05/25 06:55:18;;;;;;;2.65;1.10;;;;;;;12.33;100.00;96735.69;5033757;28;20791;-65
2022/05/25 06:57:44;;;;;;;5.85;1.05;;;;;;;12.09;100.00;96739.00;5024464;28;20049;-67
2022/05/25 07:00:10;;;;;;;3.22;1.40;;;;;;;12.07;100.00;96741.31;5036355;28;20033;-65
2022/05/25 07:02:35;;;;;;;2.67;1.25;;;;;;;12.00;100.00;96744.78;5033886;28;20049;-64
2022/05/25 07:05:01;;;;;;;8.38;1.40;;;;;;;11.64;100.00;96744.31;5043118;28;20107;-66
2022/05/25 07:07:26;;;;;;;2.15;1.63;;;;;;;11.85;100.00;96750.06;5030255;28;20056;-65
2022/05/25 07:09:52;;;;;;;3.35;1.90;;;;;;;11.73;100.00;96753.03;5041835;28;20060;-64
2022/05/25 07:12:18;;;;;;;4.05;1.80;;;;;;;11.79;100.00;96754.31;5037335;28;20480;-66
2022/05/25 07:14:43;;;;;;;2.50;1.55;;;;;;;11.67;100.00;96752.59;5042935;28;20041;-65
2022/05/25 07:17:08;;;;;;;2.53;1.67;;;;;;;11.78;100.00;96752.72;5036034;28;20044;-65
2022/05/25 07:19:34;;;;;;;2.50;1.50;;;;;;;12.02;100.00;96751.44;5051073;28;20048;-66
2022/05/25 07:22:00;;;;;;;9.07;4.28;;;;;;;11.97;100.00;96753.75;5038370;28;20570;-66
2022/05/25 07:24:26;;;;;;;4.72;2.88;;;;;;;12.04;100.00;96757.34;5034056;28;20044;-65
2022/05/25 07:26:51;;;;;;;3.92;2.15;;;;;;;12.30;100.00;96755.69;5041977;28;20045;-66
2022/05/25 07:29:17;;;;;;;5.03;2.03;;;;;;;12.49;100.00;96762.16;5036515;28;20073;-66
2022/05/25 07:31:49;;;;;;;3.75;1.92;;;;;;;12.27;100.00;96753.69;5041555;28;20150;-66
2022/05/25 07:34:20;;;;;;;4.22;2.13;;;;;;;12.80;100.00;96766.34;5037467;28;20043;-65
2022/05/25 07:36:56;;;;;;;3.53;2.00;;;;;;;13.05;100.00;96768.53;5039626;28;20107;-65
2022/05/25 07:39:26;;;;;;;3.88;2.17;;;;;;;13.53;100.00;96754.72;5035208;28;20048;-65
2022/05/25 07:41:56;;;;;;;4.45;2.20;;;;;;;14.03;100.00;96760.47;5041852;28;20414;-66
2022/05/25 07:44:33;;;;;;;3.65;1.98;;;;;;;14.89;100.00;96762.63;5037145;28;20045;-66
2022/05/25 07:47:00;;;;;;;2.88;1.90;;;;;;;15.61;100.00;96759.78;5041275;28;20109;-66
2022/05/25 07:49:26;;;;;;;3.38;2.00;;;;;;;16.05;100.00;96761.25;5036579;28;20052;-66
2022/05/25 07:51:53;;;;;;;3.45;2.15;;;;;;;15.56;100.00;96774.81;5041470;28;20167;-66
2022/05/25 07:54:18;;;;;;;3.42;2.47;;;;;;;15.59;100.00;96773.22;5036641;28;20497;-65
2022/05/25 07:56:44;;;;;;;6.72;2.42;;;;;;;15.44;100.00;96770.47;5041243;28;20055;-65
2022/05/25 07:59:12;;;;;;;3.55;1.83;;;;;;;16.20;100.00;96764.75;5036647;28;20047;-65
2022/05/25 08:07:20;;;;;;;;;;;;;;;19.59;71.36;96781.97;5035691;28;20171;-64
2022/05/25 08:09:46;;;;;;;8.07;1.10;;;;;;;19.59;70.36;96784.75;5041228;28;19928;-64
2022/05/25 08:12:12;;;;;;;3.50;1.10;;;;;;;19.29;73.02;96778.16;5036829;28;20094;-66
2022/05/25 08:14:38;;;;;;;1.73;1.23;;;;;;;17.90;82.59;96784.44;5023411;28;20040;-65
2022/05/25 08:17:06;;;;;;;2.85;1.45;;;;;;;19.10;75.57;96783.22;5037597;28;20359;-63
2022/05/25 08:19:32;;;;;;;4.07;1.38;;;;;;;19.46;72.74;96788.16;5041600;28;20511;-65
2022/05/25 08:21:57;;;;;;;3.03;1.20;;;;;;;19.55;74.57;96782.03;5042599;28;20120;-66
2022/05/25 08:24:23;;;;;;;2.42;1.27;;;;;;;17.36;84.39;96774.63;5037890;28;20048;-66
2022/05/25 08:26:48;;;;;;;3.38;1.63;;;;;;;15.64;95.83;96776.34;5040540;28;20041;-66
2022/05/25 08:29:14;;;;;;;2.65;1.42;;;;;;;16.88;93.32;96769.13;5036569;28;20041;-67
2022/05/25 08:31:39;;;;;;;3.65;1.55;;;;;;;18.06;83.29;96772.72;5040317;28;20072;-66
2022/05/25 08:34:05;;;;;;;3.08;1.10;;;;;;;18.41;81.66;96779.81;5035254;28;20056;-64
2022/05/25 08:36:32;;;;;;;2.80;1.30;;;;;;;18.37;81.81;96787.41;5040030;28;20049;-64
2022/05/25 08:38:58;;;;;;;4.78;1.30;;;;;;;18.78;77.87;96782.88;5040456;28;20041;-67
2022/05/25 08:41:29;;;;;;;2.20;1.38;;;;;;;18.85;79.17;96786.38;5034971;28;20143;-67
2022/05/25 08:43:55;;;;;;;3.45;1.13;;;;;;;17.79;83.67;96790.06;5040309;28;20052;-67
2022/05/25 08:46:23;;;;;;;4.20;1.23;;;;;;;18.48;80.06;96788.03;5035086;28;20067;-67
2022/05/25 08:48:50;;;;;;;3.78;1.48;;;;;;;18.40;81.32;96794.91;5040810;28;20047;-65
2022/05/25 08:51:19;;;;;;;4.15;1.20;;;;;;;18.33;80.43;96800.53;5035914;28;20045;-66
2022/05/25 08:53:47;;;;;;;4.82;1.85;;;;;;;18.14;78.58;96805.50;5041895;28;20446;-64
2022/05/25 08:56:29;;;;;;;3.63;1.83;;;;;;;18.33;78.98;96801.31;5054548;28;20041;-67
2022/05/25 08:59:10;;;;;;;4.35;2.30;;;;;;;17.93;80.62;96795.47;5049008;28;20509;-63
2022/05/25 09:01:57;;;;;;;5.47;2.00;;;;;;;17.89;79.44;96797.47;5045058;28;20053;-64
2022/05/25 09:05:00;;;;;;;4.45;1.88;;;;;;;17.43;82.74;96790.41;5040972;28;20136;-67
2022/05/25 09:07:48;;;;;;;11.20;2.00;;;;;;;17.40;84.80;96796.75;5036425;28;20132;-66
2022/05/25 09:10:15;;;;;;;3.35;1.60;;;;;;;17.38;84.68;96794.38;5035835;28;20587;-66
2022/05/25 09:12:49;;;;;;;3.10;1.38;;;;;;;17.04;90.76;96799.81;5039901;28;20371;-65
2022/05/25 09:15:23;;;;;;;4.55;1.30;;;;;;;17.30;85.55;96797.63;5035684;28;20037;-64
2022/05/25 09:18:17;;;;;;;2.60;1.60;;;;;;;17.36;81.75;96790.47;5040360;28;20049;-65
2022/05/25 09:20:48;;;;;;;3.83;1.52;;;;;;;17.16;81.88;96791.03;5033612;28;20052;-64
2022/05/25 09:23:14;;;;;;;3.60;1.23;;;;;;;17.44;82.20;96796.72;5052950;28;20060;-67
2022/05/25 09:25:43;;;;;;;4.57;1.20;;;;;;;17.76;79.13;96793.63;5051882;28;20478;-65
2022/05/25 09:28:16;;;;;;;2.63;1.38;;;;;;;18.19;71.37;96812.59;5037132;28;20044;-62
2022/05/25 09:30:45;;;;;;;4.25;1.17;;;;;;;19.12;65.37;96810.53;5040636;28;20077;-64
2022/05/25 09:33:30;;;;;;;3.23;1.30;;;;;;;19.13;67.62;96809.34;5034942;28;20083;-64
2022/05/25 09:36:01;;;;;;;5.40;1.27;;;;;;;19.55;66.67;96809.03;5039092;28;20033;-63
2022/05/25 09:38:43;;;;;;;3.38;1.73;;;;;;;20.13;65.33;96803.22;5033847;28;20037;-64
2022/05/25 09:41:18;;;;;;;4.70;1.25;;;;;;;21.09;63.42;96810.75;5034736;28;20068;-63
2022/05/25 09:43:44;;;;;;;4.30;1.25;;;;;;;21.34;57.82;96810.16;5040717;28;20109;-65
2022/05/25 09:46:18;;;;;;;2.10;1.13;;;;;;;20.66;62.48;96818.06;5036926;28;20472;-65
2022/05/25 09:48:50;;;;;;;11.43;2.10;;;;;;;21.90;58.20;96809.16;5039966;28;20045;-63
2022/05/25 09:51:40;;;;;;;4.53;1.33;;;;;;;21.56;58.98;96813.22;5034508;28;20041;-66
2022/05/25 09:54:25;;;;;;;3.03;1.55;;;;;;;21.30;58.91;96806.66;5038677;28;20071;-66
2022/05/25 09:56:55;;;;;;;3.20;1.10;;;;;;;22.04;55.82;96810.75;5042990;28;20047;-64
2022/05/25 09:59:29;;;;;;;5.78;1.70;;;;;;;22.14;54.66;96812.47;5040353;28;20207;-66
2022/05/25 10:01:54;;;;;;;6.07;1.70;;;;;;;20.93;58.34;96817.84;5045812;28;20040;-64
2022/05/25 10:04:51;;;;;;;3.42;1.50;;;;;;;20.64;62.10;96817.72;5040558;28;20509;-63
2022/05/25 10:07:30;;;;;;;4.00;1.40;;;;;;;20.65;63.36;96816.47;5037500;28;20056;-66
2022/05/25 10:10:01;;;;;;;3.95;1.23;;;;;;;20.83;61.84;96823.66;5043477;28;20037;-65
2022/05/25 10:12:31;;;;;;;4.78;1.67;;;;;;;20.61;61.01;96813.78;5038291;28;20053;-64
2022/05/25 10:15:05;;;;;;;3.58;1.85;;;;;;;20.79;63.35;96810.59;5044461;28;20048;-65
2022/05/25 10:17:34;;;;;;;5.80;1.48;;;;;;;20.90;62.76;96806.81;5058902;28;20037;-65
2022/05/25 10:20:00;;;;;;;4.25;1.33;;;;;;;20.77;62.85;96810.25;5052460;28;20040;-63
2022/05/25 10:22:44;;;;;;;2.40;1.23;;;;;;;20.52;62.23;96816.34;5040367;28;20075;-65
2022/05/25 10:25:27;;;;;;;2.53;1.40;;;;;;;20.20;63.03;96815.00;5039572;28;20482;-63
2022/05/25 10:27:53;;;;;;;12.57;1.90;;;;;;;19.58;65.01;96813.75;5043726;28;20056;-65
2022/05/25 10:36:47;;;;;;;3.63;1.17;;;;;;;18.73;74.51;96823.00;5038706;28;20041;-63
2022/05/25 10:39:28;;;;;;;9.82;2.33;;;;;;;18.89;71.36;96814.06;5039927;28;20041;-63
2022/05/25 10:42:45;;;;;;;4.95;1.48;;;;;;;18.76;71.44;96821.34;5049196;28;20041;-65
2022/05/25 10:45:20;;;;;;;5.60;1.42;;;;;;;19.31;71.23;96822.16;4999997;28;20041;-66
2022/05/25 10:47:54;;;;;;;4.65;1.30;;;;;;;19.46;71.99;96820.69;5054261;28;20127;-66
2022/05/25 10:50:23;;;;;;;8.77;1.60;;;;;;;19.30;71.98;96815.78;5045496;28;20045;-67
2022/05/25 10:52:56;;;;;;;3.05;1.55;;;;;;;19.63;69.91;96816.84;5053558;28;20041;-66
2022/05/25 10:55:32;;;;;;;3.33;1.70;;;;;;;19.72;67.40;96827.41;5050752;28;20200;-66
2022/05/25 10:58:14;;;;;;;2.97;1.60;;;;;;;19.61;69.48;96818.47;5058300;28;20044;-66
2022/05/25 11:01:02;;;;;;;3.05;1.60;;;;;;;19.68;68.50;96821.91;5058459;28;20052;-66
2022/05/25 11:04:04;;;;;;;19.20;5.00;;;;;;;19.42;68.55;96817.97;5054712;28;20041;-66
2022/05/25 11:06:53;;;;;;;4.10;1.92;;;;;;;19.06;71.39;96820.56;5040002;28;20055;-66
2022/05/25 11:09:36;;;;;;;6.68;2.00;;;;;;;19.34;70.79;96824.06;5053347;28;20041;-65
2022/05/25 11:12:10;;;;;;;3.03;1.75;;;;;;;19.44;68.01;96828.66;5056895;28;20095;-65
2022/05/25 11:14:45;;;;;;;10.60;2.58;;;;;;;19.82;64.55;96820.88;5057262;28;20040;-66
2022/05/25 11:17:22;;;;;;;5.97;3.80;;;;;;;18.26;71.25;96812.50;5049999;28;20047;-66
2022/05/25 11:20:08;;;;;;;3.92;2.40;;;;;;;18.97;70.26;96809.97;5053221;28;20047;-65
2022/05/25 11:23:09;;;;;;;4.55;1.83;;;;;;;19.07;68.99;96806.25;5041328;28;20041;-62
2022/05/25 11:25:43;;;;;;;4.82;1.77;;;;;;;19.56;68.63;96810.63;5040839;28;20047;-62
2022/05/25 11:28:22;;;;;;;4.18;2.10;;;;;;;19.25;66.40;96811.53;5038351;28;20101;-62
2022/05/25 11:31:04;;;;;;;3.65;1.58;;;;;;;19.39;67.10;96821.63;5042180;28;20435;-68
2022/05/25 11:33:51;;;;;;;3.80;2.13;;;;;;;19.01;68.48;96813.47;5040871;28;20478;-64
2022/05/25 11:36:49;;;;;;;11.02;3.92;;;;;;;19.52;64.13;96809.88;5036105;28;20049;-65
2022/05/25 11:39:42;;;;;;;5.93;1.80;;;;;;;19.61;61.23;96813.69;5036508;28;20044;-64
2022/05/25 11:42:36;;;;;;;7.05;1.90;;;;;;;19.93;60.84;96825.47;5036607;28;20130;-62
2022/05/25 11:45:32;;;;;;;4.55;1.48;;;;;;;19.92;62.79;96824.69;5041924;28;20045;-64
2022/05/25 11:48:15;;;;;;;6.40;1.67;;;;;;;20.22;59.15;96825.69;5041570;28;20037;-62
2022/05/25 11:50:49;;;;;;;4.57;2.13;;;;;;;19.78;60.76;96820.16;5041837;28;20037;-65
2022/05/25 11:53:40;;;;;;;4.88;1.60;;;;;;;20.17;61.57;96820.66;5035376;28;20131;-64
2022/05/25 11:56:37;;;;;;;8.98;3.50;;;;;;;20.87;55.69;96821.56;5035437;28;20052;-63
2022/05/25 11:59:18;;;;;;;5.88;1.75;;;;;;;20.79;53.97;96816.16;4995452;28;20399;-67
2022/05/25 12:01:49;;;;;;;2.28;1.45;;;;;;;20.53;57.58;96814.34;5041322;28;20063;-61
2022/05/25 12:04:30;;;;;;;3.33;1.15;;;;;;;20.84;58.99;96816.91;5036368;28;20048;-63
2022/05/25 12:07:31;;;;;;;9.30;2.50;;;;;;;21.10;54.86;96807.50;5040561;28;20048;-65